createdAt,value
2022-10-18T00:01:17.054Z,46.3
2022-10-18T00:03:19.076Z,44
2022-10-18T00:05:21.100Z,44.6
2022-10-18T00:06:23.628Z,45.9
2022-10-18T00:08:25.629Z,47.1
2022-10-18T00:10:27.657Z,44
2022-10-18T00:12:29.675Z,48.9
2022-10-18T00:14:34.738Z,47.9
2022-10-18T00:16:36.763Z,48.5
2022-10-18T00:18:38.787Z,50.3
2022-10-18T00:20:40.807Z,47.8
2022-10-18T00:22:42.802Z,48.8
2022-10-18T00:24:44.863Z,51.7
2022-10-18T00:28:51.972Z,54.2
2022-10-18T00:30:53.926Z,52.8
2022-10-18T00:37:00.003Z,54.7
2022-10-18T00:39:02.011Z,47.3
2022-10-18T00:41:04.036Z,49.5
2022-10-18T00:43:09.136Z,53.5
2022-10-18T00:45:11.132Z,53.2
2022-10-18T00:51:17.194Z,51
2022-10-18T00:53:19.254Z,50.1
2022-10-18T00:55:21.249Z,55.1
2022-10-18T00:57:26.318Z,61.2
2022-10-18T00:59:28.315Z,62.3
2022-10-18T01:02:33.273Z,66.6
2022-10-18T01:04:34.895Z,62.5
2022-10-18T01:06:36.926Z,58.8
2022-10-18T01:08:38.931Z,63.2
2022-10-18T01:10:44.028Z,64.2
2022-10-18T01:12:46.047Z,70.2
2022-10-18T01:14:48.064Z,66.4
2022-10-18T01:16:50.093Z,65.5
2022-10-18T01:18:52.109Z,63.7
2022-10-18T01:20:54.122Z,64.8
2022-10-18T01:22:56.145Z,66.3
2022-10-18T01:27:03.224Z,64.4
2022-10-18T01:29:05.301Z,68.9
2022-10-18T01:31:07.258Z,68
2022-10-18T01:33:09.283Z,65.3
2022-10-18T01:35:11.289Z,65.4
2022-10-18T01:37:13.314Z,66.4
2022-10-18T01:43:22.433Z,61.1
2022-10-18T01:45:24.642Z,58.3
2022-10-18T01:47:26.465Z,59.2
2022-10-18T01:49:28.477Z,55.5
2022-10-18T01:51:30.495Z,54.6
2022-10-18T01:53:35.618Z,59.4
2022-10-18T01:55:37.619Z,57.4
2022-10-18T01:57:39.628Z,59.6
2022-10-18T02:00:44.190Z,57.5
2022-10-18T02:02:46.201Z,53
2022-10-18T02:04:48.197Z,55
2022-10-18T02:06:53.278Z,58.8
2022-10-18T02:08:55.305Z,53.1
2022-10-18T02:10:57.311Z,54.4
2022-10-18T02:12:59.321Z,58.1
2022-10-18T02:15:01.357Z,52.5
2022-10-18T02:17:03.353Z,53.7
2022-10-18T02:19:05.368Z,54.7
2022-10-18T02:23:12.445Z,53.8
2022-10-18T02:25:14.487Z,51.8
2022-10-18T02:27:16.510Z,55.3
2022-10-18T02:29:18.532Z,53.3
2022-10-18T02:31:20.579Z,53
2022-10-18T02:33:22.542Z,58.5
2022-10-18T02:35:27.643Z,62.2
2022-10-18T02:37:29.664Z,63.7
2022-10-18T02:39:31.665Z,64.6
2022-10-18T02:41:33.677Z,62.5
2022-10-18T02:43:35.707Z,65.1
2022-10-18T02:45:37.738Z,64.8
2022-10-18T02:47:39.749Z,64.3
2022-10-18T02:49:44.832Z,71.2
2022-10-18T02:51:46.848Z,58.9
2022-10-18T02:53:48.880Z,57.9
2022-10-18T02:56:05.769Z,61.3
2022-10-18T02:58:07.774Z,58.4
2022-10-18T03:00:09.804Z,57.3
2022-10-18T03:02:14.885Z,58.1
2022-10-18T03:04:16.973Z,58.5
2022-10-18T03:08:20.938Z,58
2022-10-18T03:10:22.948Z,60.7
2022-10-18T03:12:24.975Z,55.6
2022-10-18T03:14:26.975Z,61.2
2022-10-18T03:16:32.061Z,60.3
2022-10-18T03:18:34.077Z,53.8
2022-10-18T03:20:36.097Z,60.5
2022-10-18T03:22:38.103Z,56.7
2022-10-18T03:24:40.128Z,63.1
2022-10-18T03:26:42.144Z,57.5
2022-10-18T03:28:44.212Z,55.3
2022-10-18T03:30:49.322Z,59.4
2022-10-18T03:32:51.281Z,58.5
2022-10-18T03:34:53.290Z,53.7
2022-10-18T03:36:55.338Z,53.8
2022-10-18T03:38:57.325Z,52.5
2022-10-18T03:40:59.370Z,53.7
2022-10-18T03:43:01.363Z,50.8
2022-10-18T03:45:06.515Z,61
2022-10-18T03:47:08.480Z,53.7
2022-10-18T03:49:10.494Z,55.2
2022-10-18T03:50:13.032Z,54.1
2022-10-18T03:52:15.052Z,51.1
2022-10-18T03:54:17.086Z,50.8
2022-10-18T03:56:19.086Z,47.3
2022-10-18T03:58:24.260Z,52
2022-10-18T04:00:26.214Z,54.8
2022-10-18T04:02:28.218Z,53.5
2022-10-18T04:04:30.281Z,52
2022-10-18T04:06:32.258Z,48
2022-10-18T04:08:34.272Z,49.9
2022-10-18T04:10:36.304Z,51.3
2022-10-18T04:12:41.396Z,47.1
2022-10-18T04:14:43.398Z,46.8
2022-10-18T04:18:47.456Z,51.8
2022-10-18T04:22:51.477Z,49.9
2022-10-18T04:24:53.510Z,48
2022-10-18T04:26:58.605Z,50.5
2022-10-18T04:29:00.697Z,48.4
2022-10-18T04:31:02.616Z,48.8
2022-10-18T04:33:04.645Z,51.1
2022-10-18T04:35:06.669Z,50
2022-10-18T04:37:08.687Z,36.6
2022-10-18T04:39:10.696Z,47.5
2022-10-18T04:41:15.803Z,50.6
2022-10-18T04:43:17.937Z,57.4
2022-10-18T04:46:22.360Z,54.9
2022-10-18T04:48:24.388Z,54.9
2022-10-18T04:50:26.410Z,48.7
2022-10-18T04:52:28.452Z,53.4
2022-10-18T04:54:33.511Z,49.7
2022-10-18T04:56:35.547Z,56.7
2022-10-18T04:58:37.572Z,49.2
2022-10-18T05:00:40.134Z,42.5
2022-10-18T05:02:41.613Z,52.3
2022-10-18T05:04:43.662Z,55.5
2022-10-18T05:06:45.679Z,60.9
2022-10-18T05:08:50.748Z,53.7
2022-10-18T05:10:52.910Z,54.4
2022-10-18T05:12:54.816Z,54.3
2022-10-18T05:14:56.937Z,61.6
2022-10-18T05:16:58.836Z,54.1
2022-10-18T05:19:02.404Z,48.6
2022-10-18T05:21:04.383Z,65.9
2022-10-18T05:23:09.465Z,50.5
2022-10-18T05:25:11.487Z,65.6
2022-10-18T05:27:13.506Z,68.6
2022-10-18T05:29:15.685Z,47.8
2022-10-18T05:31:17.552Z,48.2
2022-10-18T05:33:19.595Z,62.2
2022-10-18T05:35:21.612Z,50.9
2022-10-18T05:37:28.403Z,56
2022-10-18T05:39:28.848Z,57
2022-10-18T05:41:30.744Z,63.3
2022-10-18T05:42:33.609Z,56.6
2022-10-18T05:44:35.345Z,57.3
2022-10-18T05:46:37.344Z,61.9
2022-10-18T05:48:39.373Z,59
2022-10-18T05:50:44.457Z,70.1
2022-10-18T05:52:46.462Z,61.9
2022-10-18T05:54:48.620Z,59.4
2022-10-18T05:58:52.534Z,69
2022-10-18T06:00:54.579Z,48.8
2022-10-18T06:02:59.493Z,63.9
2022-10-18T06:05:01.563Z,55.3
2022-10-18T06:07:03.587Z,53.2
2022-10-18T06:09:05.629Z,56.6
2022-10-18T06:13:09.643Z,50.4
2022-10-18T06:15:11.652Z,49.6
2022-10-18T06:17:13.657Z,47.1
2022-10-18T06:21:20.787Z,49.2
2022-10-18T06:23:22.775Z,52.2
2022-10-18T06:25:24.802Z,46.3
2022-10-18T06:27:26.823Z,42
2022-10-18T06:29:28.834Z,43.4
2022-10-18T06:31:30.853Z,42.9
2022-10-18T06:33:35.932Z,40.2
2022-10-18T06:35:37.940Z,41
2022-10-18T06:37:40.079Z,52.2
2022-10-18T06:40:00.563Z,46.8
2022-10-18T06:42:02.591Z,44.1
2022-10-18T06:44:04.617Z,35.3
2022-10-18T06:46:09.675Z,31.5
2022-10-18T06:50:13.749Z,36.8
2022-10-18T06:54:18.677Z,32.1
2022-10-18T06:56:19.908Z,33
2022-10-18T06:58:21.790Z,34.2
2022-10-18T07:00:26.875Z,31.1
2022-10-18T07:02:29.164Z,28.3
2022-10-18T07:04:30.927Z,30.2
2022-10-18T07:06:32.956Z,29.7
2022-10-18T07:08:34.940Z,28.1
2022-10-18T07:12:38.996Z,28.6
2022-10-18T07:14:44.065Z,29.9
2022-10-18T07:16:46.100Z,26.1
2022-10-18T07:18:48.125Z,27.3
2022-10-18T07:20:50.144Z,29.1
2022-10-18T07:22:52.142Z,28.2
2022-10-18T07:24:54.151Z,29.5
2022-10-18T07:26:56.183Z,28.7
2022-10-18T07:29:01.288Z,29.5
2022-10-18T07:31:05.974Z,30.9
2022-10-18T07:33:05.304Z,31.6
2022-10-18T07:36:09.855Z,33.1
2022-10-18T07:38:11.896Z,33.2
2022-10-18T07:42:18.982Z,34
2022-10-18T07:44:21.000Z,32.6
2022-10-18T07:46:23.007Z,30.8
2022-10-18T07:48:25.061Z,33.4
2022-10-18T07:52:29.073Z,30.2
2022-10-18T07:54:31.135Z,31.5
2022-10-18T07:56:36.178Z,33
2022-10-18T07:58:38.228Z,34.6
2022-10-18T08:00:40.225Z,32.5
2022-10-18T08:02:42.248Z,31.3
2022-10-18T08:04:44.262Z,28.8
2022-10-18T08:06:46.281Z,30.3
2022-10-18T08:08:50.871Z,33.2
2022-10-18T08:10:53.368Z,35.4
2022-10-18T08:12:55.413Z,31.3
2022-10-18T08:14:57.439Z,27.7
2022-10-18T08:16:59.437Z,28.7
2022-10-18T08:19:01.471Z,23.1
2022-10-18T08:21:03.508Z,25.9
2022-10-18T08:23:05.493Z,25.5
2022-10-18T08:25:10.579Z,25.1
2022-10-18T08:27:12.611Z,21.7
2022-10-18T08:29:22.943Z,21.8
2022-10-18T08:30:17.184Z,22.8
2022-10-18T08:32:19.206Z,20.4
2022-10-18T08:34:21.205Z,21.1
2022-10-18T08:36:23.219Z,18.8
2022-10-18T08:38:28.283Z,19.8
2022-10-18T08:40:30.319Z,16.3
2022-10-18T08:42:32.739Z,15.6
2022-10-18T08:44:34.330Z,14.9
2022-10-18T08:46:36.369Z,11.3
2022-10-18T08:48:38.370Z,9.7
2022-10-18T08:50:40.394Z,11.4
2022-10-18T08:52:45.491Z,12.5
2022-10-18T08:54:47.503Z,10.3
2022-10-18T08:56:49.503Z,11.3
2022-10-18T08:58:51.533Z,11.6
2022-10-18T09:00:53.552Z,8.7
2022-10-18T09:02:55.614Z,10
2022-10-18T09:04:57.601Z,8.9
2022-10-18T09:07:02.684Z,10
2022-10-18T09:09:04.706Z,7.7
2022-10-18T09:11:06.717Z,8.2
2022-10-18T09:13:08.740Z,7.5
2022-10-18T09:15:10.757Z,6.8
2022-10-18T09:17:15.964Z,6.7
2022-10-18T09:19:14.793Z,6
2022-10-18T09:21:19.917Z,7
2022-10-18T09:23:21.915Z,8
2022-10-18T09:25:24.042Z,6.5
2022-10-18T09:26:26.454Z,7.9
2022-10-18T09:28:28.532Z,5.4
2022-10-18T09:30:30.508Z,7.2
2022-10-18T09:32:32.952Z,5.1
2022-10-18T09:34:37.592Z,5.5
2022-10-18T09:36:39.605Z,5.5
2022-10-18T09:38:41.612Z,4.9
2022-10-18T09:40:43.630Z,4.7
2022-10-18T09:42:45.644Z,4.8
2022-10-18T09:44:47.658Z,3.3
2022-10-18T09:46:49.708Z,3
2022-10-18T09:48:54.771Z,2.4
2022-10-18T09:50:56.768Z,2.4
2022-10-18T09:52:58.772Z,3.6
2022-10-18T09:55:00.789Z,2.9
2022-10-18T09:57:02.791Z,2.4
2022-10-18T09:59:04.798Z,1.9
2022-10-18T10:01:06.803Z,6.7
2022-10-18T10:03:11.908Z,1.6
2022-10-18T10:05:13.893Z,2
2022-10-18T10:07:15.878Z,1.4
2022-10-18T10:09:17.901Z,1.9
2022-10-18T10:11:19.911Z,2.2
2022-10-18T10:13:21.915Z,1.1
2022-10-18T10:15:23.925Z,1.1
2022-10-18T10:17:29.257Z,1.7
2022-10-18T10:19:30.982Z,1.1
2022-10-18T10:21:32.982Z,0.7
2022-10-18T10:23:55.683Z,0.9
2022-10-18T10:25:57.624Z,1.3
2022-10-18T10:27:59.601Z,1.2
2022-10-18T10:34:08.670Z,1.4
2022-10-18T10:36:10.669Z,1.5
2022-10-18T10:40:18.355Z,1
2022-10-18T10:42:16.621Z,1.5
2022-10-18T10:52:29.606Z,0.9
2022-10-18T10:58:38.636Z,2.1
2022-10-18T11:00:40.608Z,1.2
2022-10-18T11:08:48.482Z,1.1
2022-10-18T11:14:58.899Z,0.9
2022-10-18T11:17:04.236Z,1
2022-10-18T11:18:03.383Z,0.9
2022-10-18T11:20:05.378Z,0.9
2022-10-18T11:22:07.304Z,1.1
2022-10-18T11:24:09.249Z,0.5
2022-10-18T11:26:14.285Z,0.9
2022-10-18T11:28:16.367Z,1
2022-10-18T11:30:18.209Z,1
2022-10-18T11:32:20.164Z,0.9
2022-10-18T11:34:22.100Z,0.6
2022-10-18T11:38:25.999Z,0.7
2022-10-18T11:40:31.040Z,0.9
2022-10-18T11:42:35.660Z,1.5
2022-10-18T11:44:34.933Z,0.9
2022-10-18T11:48:38.829Z,0.7
2022-10-18T11:50:40.776Z,0.8
2022-10-18T11:52:42.727Z,1.3
2022-10-18T11:54:47.782Z,2.6
2022-10-18T11:56:49.730Z,1.2
2022-10-18T11:58:51.817Z,1.3
2022-10-18T12:00:53.634Z,0.8
2022-10-18T12:02:55.601Z,0.9
2022-10-18T12:05:22.105Z,1.7
2022-10-18T12:06:59.426Z,1.2
2022-10-18T12:09:04.463Z,1.1
2022-10-18T12:11:06.914Z,1.2
2022-10-18T12:14:10.856Z,0.8
2022-10-18T12:16:12.825Z,1.7
2022-10-18T12:22:21.718Z,0.8
2022-10-18T12:24:23.649Z,1
2022-10-18T12:26:25.586Z,1
2022-10-18T12:28:27.593Z,0.7
2022-10-18T12:30:29.457Z,0.9
2022-10-18T12:32:31.808Z,1.2
2022-10-18T12:34:33.339Z,1.1
2022-10-18T12:36:38.388Z,1
2022-10-18T12:38:40.334Z,1.2
2022-10-18T12:40:42.237Z,1
2022-10-18T12:42:44.204Z,0.7
2022-10-18T12:44:46.161Z,1.6
2022-10-18T12:46:48.074Z,1.1
2022-10-18T12:48:50.058Z,1
2022-10-18T12:50:55.055Z,1.4
2022-10-18T12:52:57.001Z,3
2022-10-18T12:54:58.938Z,1.1
2022-10-18T12:57:00.865Z,0.9
2022-10-18T12:59:02.811Z,0.8
2022-10-18T13:01:04.819Z,1.2
2022-10-18T13:03:06.679Z,0.8
2022-10-18T13:05:21.226Z,1.1
2022-10-18T13:07:13.637Z,1.3
2022-10-18T13:09:15.593Z,1.5
2022-10-18T13:10:18.330Z,1.2
2022-10-18T13:12:20.060Z,0.9
2022-10-18T13:14:21.979Z,1.2
2022-10-18T13:16:23.917Z,1.7
2022-10-18T13:18:28.946Z,1.2
2022-10-18T13:20:30.905Z,1.2
2022-10-18T13:22:32.829Z,1.4
2022-10-18T13:24:34.800Z,1
2022-10-18T13:26:36.724Z,1.3
2022-10-18T13:28:38.729Z,1.1
2022-10-18T13:30:40.597Z,1
2022-10-18T13:38:51.444Z,0.6
2022-10-18T13:47:02.301Z,1.1
2022-10-18T13:49:04.251Z,1
2022-10-18T13:53:08.148Z,0.9
2022-10-18T13:55:10.097Z,1.5
2022-10-18T13:57:12.028Z,1.1
2022-10-18T14:01:19.048Z,1.4
2022-10-18T14:05:25.491Z,1.1
2022-10-18T14:07:45.652Z,1.9
2022-10-18T14:11:49.525Z,1.3
2022-10-18T14:15:56.532Z,1.4
2022-10-18T14:17:58.499Z,1.6
2022-10-18T14:20:00.418Z,1.4
2022-10-18T14:22:02.386Z,2
2022-10-18T14:24:04.359Z,1.3
2022-10-18T14:26:06.304Z,1.6
2022-10-18T14:28:12.269Z,1.1
2022-10-18T14:30:13.350Z,1.7
2022-10-18T14:32:15.302Z,1.3
2022-10-18T14:34:17.273Z,1.7
2022-10-18T14:36:19.249Z,1.5
2022-10-18T14:38:21.214Z,1.9
2022-10-18T14:40:23.196Z,1.4
2022-10-18T14:42:28.221Z,1.6
2022-10-18T14:44:30.204Z,1.1
2022-10-18T14:46:32.181Z,1.5
2022-10-18T14:48:34.149Z,1
2022-10-18T14:52:38.110Z,1.3
2022-10-18T14:54:40.076Z,1.6
2022-10-18T14:56:45.134Z,0.8
2022-10-18T14:58:47.130Z,1.3
2022-10-18T15:00:49.096Z,1.4
2022-10-18T15:01:51.654Z,1.8
2022-10-18T15:03:53.610Z,1.5
2022-10-18T15:05:55.581Z,1.5
2022-10-18T15:07:57.573Z,1.3
2022-10-18T15:16:08.571Z,1.3
2022-10-18T15:18:10.685Z,0.8
2022-10-18T15:22:43.509Z,1.8
2022-10-18T15:32:27.489Z,1
2022-10-18T15:34:29.473Z,1.5
2022-10-18T15:36:31.523Z,1.7
2022-10-18T15:40:38.515Z,2.4
2022-10-18T15:42:40.487Z,1.2
2022-10-18T15:44:42.483Z,1.4
2022-10-18T15:46:44.468Z,1.6
2022-10-18T15:50:48.448Z,1.3
2022-10-18T15:52:53.533Z,1.5
2022-10-18T15:54:55.562Z,1.8
2022-10-18T15:56:57.538Z,1.5
2022-10-18T15:58:00.092Z,1.3
2022-10-18T16:00:02.143Z,1.4
2022-10-18T16:02:04.138Z,1.6
2022-10-18T16:04:06.113Z,1.5
2022-10-18T16:06:13.399Z,1.6
2022-10-18T16:08:13.193Z,1.7
2022-10-18T16:10:15.187Z,1.9
2022-10-18T16:12:17.205Z,1.6
2022-10-18T16:14:19.242Z,1.1
2022-10-18T16:16:21.268Z,1.8
2022-10-18T16:18:23.274Z,1.8
2022-10-18T16:20:28.378Z,2.1
2022-10-18T16:22:32.286Z,3.2
2022-10-18T16:24:32.415Z,1.6
2022-10-18T16:30:38.529Z,2.3
2022-10-18T16:32:40.537Z,1.8
2022-10-18T16:44:55.844Z,2
2022-10-18T16:46:57.893Z,1.6
2022-10-18T16:49:02.994Z,3.1
2022-10-18T16:54:09.623Z,2.9
2022-10-18T16:56:11.657Z,1.9
2022-10-18T17:00:15.749Z,3
2022-10-18T17:02:22.366Z,1.7
2022-10-18T17:04:24.389Z,2
2022-10-18T17:06:26.439Z,2.8
2022-10-18T17:08:28.488Z,2.2
2022-10-18T17:10:30.549Z,2.8
2022-10-18T17:12:32.907Z,2.2
2022-10-18T17:16:39.716Z,2.3
2022-10-18T17:18:41.754Z,2.7
2022-10-18T17:20:43.803Z,3
2022-10-18T17:24:47.888Z,2.3
2022-10-18T17:26:49.937Z,2.9
2022-10-18T17:28:52.085Z,3.3
2022-10-18T17:30:57.098Z,3.1
2022-10-18T17:32:59.108Z,2.8
2022-10-18T17:35:01.152Z,3.8
2022-10-18T17:37:03.200Z,5.9
2022-10-18T17:39:05.228Z,3.7
2022-10-18T17:41:07.282Z,3.3
2022-10-18T17:43:09.304Z,4
2022-10-18T17:45:14.412Z,3.8
2022-10-18T17:49:18.499Z,6
2022-10-18T17:51:35.357Z,2.6
2022-10-18T17:53:37.403Z,4.5
2022-10-18T17:55:39.425Z,4.4
2022-10-18T17:57:44.547Z,4.7
2022-10-18T17:59:46.567Z,4.6
2022-10-18T18:01:48.671Z,3.1
2022-10-18T18:03:50.669Z,4.4
2022-10-18T18:05:52.706Z,3.7
2022-10-18T18:07:54.884Z,4.4
2022-10-18T18:09:56.792Z,4.7
2022-10-18T18:12:01.889Z,3.9
2022-10-18T18:14:03.911Z,3.6
2022-10-18T18:16:05.956Z,4.3
2022-10-18T18:18:08.019Z,4.6
2022-10-18T18:20:10.029Z,3.8
2022-10-18T18:22:12.054Z,3.8
2022-10-18T18:24:14.099Z,4.4
2022-10-18T18:26:19.171Z,3.3
2022-10-18T18:28:21.213Z,3.4
2022-10-18T18:30:23.254Z,4.4
2022-10-18T18:32:25.306Z,4.4
2022-10-18T18:34:27.321Z,3.8
2022-10-18T18:36:29.347Z,2.5
2022-10-18T18:38:31.397Z,4
2022-10-18T18:40:36.459Z,3.9
2022-10-18T18:42:38.503Z,4.3
2022-10-18T18:44:40.535Z,3.8
2022-10-18T18:47:45.100Z,3.8
2022-10-18T18:49:47.132Z,3.4
2022-10-18T19:00:00.345Z,4.7
2022-10-18T19:02:02.384Z,6
2022-10-18T19:04:04.389Z,5.8
2022-10-18T19:06:06.422Z,5.2
2022-10-18T19:08:11.502Z,6.2
2022-10-18T19:10:13.547Z,6.3
2022-10-18T19:12:19.084Z,6.9
2022-10-18T19:14:17.657Z,6.4
2022-10-18T19:16:19.670Z,7.6
2022-10-18T19:18:23.893Z,7
2022-10-18T19:20:23.701Z,6.9
2022-10-18T19:22:28.789Z,8.4
2022-10-18T19:24:30.817Z,9.5
2022-10-18T19:26:32.863Z,9.9
2022-10-18T19:28:34.886Z,8.7
2022-10-18T19:34:40.942Z,10.6
2022-10-18T19:36:46.050Z,9.3
2022-10-18T19:38:48.051Z,9
2022-10-18T19:40:53.662Z,9.5
2022-10-18T19:41:52.609Z,11
2022-10-18T19:47:58.699Z,9.9
2022-10-18T19:56:09.874Z,10.5
2022-10-18T20:06:23.345Z,11.5
2022-10-18T20:08:25.369Z,11.2
2022-10-18T20:10:27.374Z,10.7
2022-10-18T20:12:29.561Z,11.5
2022-10-18T20:14:31.459Z,9.9
2022-10-18T20:16:33.581Z,10.3
2022-10-18T20:18:38.731Z,13.8
2022-10-18T20:20:43.340Z,11.9
2022-10-18T20:22:42.759Z,11.7
2022-10-18T20:24:44.791Z,11.3
2022-10-18T20:26:47.008Z,13.8
2022-10-18T20:28:49.083Z,12.5
2022-10-18T20:30:50.979Z,13.4
2022-10-18T20:32:56.054Z,12.9
2022-10-18T20:34:58.060Z,12.2
2022-10-18T20:37:00.083Z,12.5
2022-10-18T20:38:02.608Z,12.5
2022-10-18T20:40:04.753Z,11.7
2022-10-18T20:42:06.857Z,12
2022-10-18T20:44:08.873Z,12.3
2022-10-18T20:46:13.948Z,14.4
2022-10-18T20:48:15.990Z,11.8
2022-10-18T20:50:18.078Z,13.6
2022-10-18T20:52:20.211Z,13.2
2022-10-18T20:54:22.341Z,13.4
2022-10-18T20:56:24.460Z,12.9
2022-10-18T20:58:26.568Z,12.5
2022-10-18T21:00:31.828Z,13.3
2022-10-18T21:02:33.932Z,14.5
2022-10-18T21:04:37.701Z,13.4
2022-10-18T21:06:38.190Z,12.4
2022-10-18T21:08:40.313Z,12.8
2022-10-18T21:10:42.442Z,11.6
2022-10-18T21:12:44.562Z,11.3
2022-10-18T21:14:49.822Z,12.9
2022-10-18T21:16:51.940Z,13.3
2022-10-18T21:18:54.042Z,13.2
2022-10-18T21:20:56.175Z,13.8
2022-10-18T21:27:02.520Z,13.2
2022-10-18T21:29:07.924Z,12
2022-10-18T21:31:09.916Z,13.2
2022-10-18T21:33:12.013Z,14.3
2022-10-18T21:37:35.155Z,14.8
2022-10-18T21:43:44.624Z,15.6
2022-10-18T21:45:46.735Z,13.6
2022-10-18T21:47:48.849Z,13.3
2022-10-18T21:51:53.088Z,12.8
2022-10-18T21:53:55.208Z,14.3
2022-10-18T21:56:00.519Z,14.2
2022-10-18T21:58:02.566Z,13.7
2022-10-18T22:00:04.724Z,14
2022-10-18T22:02:06.769Z,12
2022-10-18T22:04:08.901Z,12
2022-10-18T22:06:10.996Z,11.4
2022-10-18T22:08:13.102Z,14.9
2022-10-18T22:10:18.140Z,13.6
2022-10-18T22:16:24.246Z,13.1
2022-10-18T22:26:37.934Z,11.9
2022-10-18T22:29:42.657Z,11.8
2022-10-18T22:31:44.782Z,11.9
2022-10-18T22:37:54.247Z,14.2
2022-10-18T22:44:03.451Z,12.3
2022-10-18T22:48:04.756Z,12.8
2022-10-18T22:50:06.881Z,12.9
2022-10-18T22:54:15.702Z,13.7
2022-10-18T22:56:17.819Z,12.1
2022-10-18T22:58:19.901Z,13.2
2022-10-18T23:00:22.107Z,12.6
2022-10-18T23:02:24.100Z,14.2
2022-10-18T23:04:26.184Z,12.9
2022-10-18T23:06:32.488Z,15.4
2022-10-18T23:08:33.574Z,14.4
2022-10-18T23:10:35.642Z,14.2
2022-10-18T23:12:37.723Z,14.7
2022-10-18T23:14:39.836Z,12.8
2022-10-18T23:18:43.997Z,13.8
2022-10-18T23:20:49.255Z,12.9
2022-10-18T23:22:51.353Z,15.3
2022-10-18T23:24:53.427Z,14.2
2022-10-18T23:25:56.055Z,14.9
2022-10-18T23:27:58.144Z,14.8
2022-10-18T23:30:00.253Z,13.5
2022-10-18T23:34:07.569Z,15.9
2022-10-18T23:38:11.737Z,14.4
2022-10-18T23:40:13.814Z,14.5
2022-10-18T23:42:15.917Z,15.6
2022-10-18T23:44:18.057Z,13.3
2022-10-18T23:46:21.107Z,14.1
2022-10-18T23:48:25.338Z,14.6
2022-10-18T23:50:27.413Z,15
2022-10-18T23:52:29.533Z,16
2022-10-18T23:54:31.681Z,16
2022-10-18T23:56:33.698Z,15.9
2022-10-18T23:58:35.772Z,16.2
